Time;durP1;ratioP1;P1;durP2;ratioP2;P2;SDS_P1;SDS_P2;PMS_P1;PMS_P2;Temp;Humidity;BMP_temperature;BMP_pressure;BME280_temperature;BME280_humidity;BME280_pressure;Samples;Min_cycle;Max_cycle;Signal;HPM_P1;HPM_P2
2021/09/08 00:02:01;;;;;;;30.75;22.85;;;18.10;99.90;;;;;;5045593;28;20128;-78
2021/09/08 00:04:27;;;;;;;35.13;23.65;;;18.10;99.90;;;;;;5066971;28;20116;-77
2021/09/08 00:06:53;;;;;;;34.22;22.92;;;18.10;99.90;;;;;;5034112;28;20040;-77
2021/09/08 00:09:18;;;;;;;33.90;23.38;;;18.10;99.90;;;;;;5049655;28;20036;-77
2021/09/08 00:11:45;;;;;;;33.55;23.95;;;18.10;99.90;;;;;;5045762;28;20040;-77
2021/09/08 00:14:11;;;;;;;40.17;23.50;;;18.10;99.90;;;;;;5054689;28;20491;-78
2021/09/08 00:16:41;;;;;;;35.25;23.67;;;18.10;99.90;;;;;;5073846;28;20036;-78
2021/09/08 00:19:07;;;;;;;41.75;25.35;;;18.10;99.90;;;;;;5074189;28;20040;-78
2021/09/08 00:21:32;;;;;;;37.15;23.70;;;18.10;99.90;;;;;;5061516;28;20534;-78
2021/09/08 00:23:58;;;;;;;34.42;24.17;;;18.10;99.90;;;;;;5055860;28;20033;-78
2021/09/08 00:26:24;;;;;;;33.90;24.15;;;18.10;99.90;;;;;;5054724;28;20390;-82
2021/09/08 00:28:50;;;;;;;36.72;25.27;;;18.00;99.90;;;;;;5075191;28;20050;-79
2021/09/08 00:31:19;;;;;;;37.53;25.30;;;18.00;99.90;;;;;;5040659;28;20542;-82
2021/09/08 00:33:45;;;;;;;35.58;24.10;;;18.00;99.90;;;;;;5061678;28;20048;-82
2021/09/08 00:36:10;;;;;;;36.80;24.38;;;18.00;99.90;;;;;;5054149;28;20041;-82
2021/09/08 00:38:36;;;;;;;36.50;24.35;;;18.00;99.90;;;;;;5037195;28;20044;-82
2021/09/08 00:41:02;;;;;;;39.25;25.92;;;18.00;99.90;;;;;;5053182;28;20506;-82
2021/09/08 00:43:27;;;;;;;35.13;24.52;;;18.00;99.90;;;;;;5058373;28;20053;-82
2021/09/08 00:45:55;;;;;;;37.83;25.60;;;18.00;99.90;;;;;;5057175;28;20431;-82
2021/09/08 00:48:21;;;;;;;36.63;25.25;;;18.00;99.90;;;;;;5057119;28;20044;-82
2021/09/08 00:50:48;;;;;;;38.03;25.45;;;17.90;99.90;;;;;;5068243;28;20604;-82
2021/09/08 00:53:20;;;;;;;41.63;24.48;;;17.90;99.90;;;;;;5038335;28;20041;-82
2021/09/08 00:55:48;;;;;;;33.75;23.90;;;17.90;99.90;;;;;;5070000;28;20049;-82
2021/09/08 00:58:14;;;;;;;41.75;25.02;;;17.90;99.90;;;;;;5054822;28;20544;-82
2021/09/08 01:00:41;;;;;;;44.65;25.15;;;17.90;99.90;;;;;;5067419;28;20468;-82
2021/09/08 01:03:06;;;;;;;37.20;23.85;;;17.90;99.90;;;;;;5063721;28;20499;-82
2021/09/08 01:05:33;;;;;;;35.80;24.88;;;17.80;99.90;;;;;;5056224;28;20068;-82
2021/09/08 01:07:59;;;;;;;37.50;24.73;;;17.80;99.90;;;;;;5060793;28;20037;-82
2021/09/08 01:10:29;;;;;;;39.95;25.25;;;17.80;99.90;;;;;;5050663;28;20037;-82
2021/09/08 01:12:55;;;;;;;38.67;24.70;;;17.80;99.90;;;;;;5043534;28;20067;-82
2021/09/08 01:15:21;;;;;;;34.45;24.23;;;17.80;99.90;;;;;;5061689;28;20481;-82
2021/09/08 01:17:47;;;;;;;37.25;24.02;;;17.80;99.90;;;;;;5067971;28;20044;-83
2021/09/08 01:20:14;;;;;;;34.55;23.25;;;17.70;99.90;;;;;;5073127;28;20037;-77
2021/09/08 01:23:01;;;;;;;36.10;24.35;;;17.90;99.90;;;;;;5065914;28;20116;-78
2021/09/08 01:25:30;;;;;;;40.95;24.90;;;17.70;99.90;;;;;;5066097;28;20039;-78
2021/09/08 01:27:55;;;;;;;34.22;24.48;;;17.70;99.90;;;;;;5058501;28;20483;-78
2021/09/08 01:30:23;;;;;;;42.75;25.60;;;17.70;99.90;;;;;;5052406;28;20079;-78
2021/09/08 01:32:49;;;;;;;35.55;24.67;;;17.70;99.90;;;;;;5048761;28;20047;-78
2021/09/08 01:35:20;;;;;;;37.70;24.65;;;17.70;99.90;;;;;;5055699;28;20043;-78
2021/09/08 01:37:47;;;;;;;38.50;25.60;;;17.70;99.90;;;;;;5054144;28;20086;-78
2021/09/08 01:40:14;;;;;;;39.22;25.05;;;17.60;99.90;;;;;;5069871;28;20419;-78
2021/09/08 01:42:39;;;;;;;38.97;25.00;;;17.60;99.90;;;;;;5073428;28;20058;-78
2021/09/08 01:45:05;;;;;;;36.92;23.38;;;17.60;99.90;;;;;;5052705;28;20040;-78
2021/09/08 01:47:31;;;;;;;36.90;24.90;;;17.60;99.90;;;;;;5068403;28;20045;-81
2021/09/08 01:49:57;;;;;;;38.75;26.10;;;17.60;99.90;;;;;;5036581;28;20044;-82
2021/09/08 01:52:23;;;;;;;42.90;26.00;;;17.60;99.90;;;;;;5055435;28;20044;-82
2021/09/08 01:54:49;;;;;;;37.00;25.15;;;17.60;99.90;;;;;;5064185;28;20131;-78
2021/09/08 01:57:14;;;;;;;38.72;24.65;;;17.50;99.90;;;;;;5057363;28;20500;-78
2021/09/08 01:59:40;;;;;;;39.80;25.50;;;17.60;99.90;;;;;;5056162;28;20036;-78
2021/09/08 02:02:06;;;;;;;41.70;26.83;;;17.60;99.90;;;;;;5056933;28;20493;-78
2021/09/08 02:04:31;;;;;;;39.95;28.48;;;17.60;99.90;;;;;;5055263;28;20041;-78
2021/09/08 02:06:57;;;;;;;44.95;29.05;;;17.60;99.90;;;;;;5062512;28;20049;-78
2021/09/08 02:09:23;;;;;;;41.08;26.80;;;17.50;99.90;;;;;;5031807;28;20079;-78
2021/09/08 02:11:48;;;;;;;43.10;27.63;;;17.50;99.90;;;;;;5042663;28;20055;-78
2021/09/08 02:14:14;;;;;;;40.92;28.77;;;17.50;99.90;;;;;;5055177;28;20051;-78
2021/09/08 02:16:40;;;;;;;38.75;25.70;;;17.50;99.90;;;;;;5064397;28;20049;-78
2021/09/08 02:19:06;;;;;;;41.33;27.92;;;17.40;99.90;;;;;;5053690;28;20029;-78
2021/09/08 02:21:31;;;;;;;43.13;27.75;;;17.50;99.90;;;;;;5068757;28;20033;-78
2021/09/08 02:23:57;;;;;;;42.30;27.73;;;17.50;99.90;;;;;;5071713;28;20059;-78
2021/09/08 02:26:23;;;;;;;41.88;28.67;;;17.40;99.90;;;;;;5066938;28;20048;-78
2021/09/08 02:28:49;;;;;;;45.33;31.17;;;17.40;99.90;;;;;;5071539;28;20094;-78
2021/09/08 02:31:15;;;;;;;44.80;29.40;;;17.40;99.90;;;;;;5051478;28;20477;-78
2021/09/08 02:33:41;;;;;;;45.20;31.65;;;17.40;99.90;;;;;;5055644;28;20393;-78
2021/09/08 02:36:07;;;;;;;50.10;32.85;;;17.40;99.90;;;;;;5063924;28;20416;-78
2021/09/08 02:38:34;;;;;;;51.33;32.83;;;17.40;99.90;;;;;;5035092;28;20118;-78
2021/09/08 02:41:06;;;;;;;49.90;31.67;;;17.40;99.90;;;;;;5061927;28;20045;-78
2021/09/08 02:43:33;;;;;;;50.55;31.33;;;17.40;99.90;;;;;;5056388;28;20362;-79
2021/09/08 02:46:01;;;;;;;46.60;30.70;;;17.30;99.90;;;;;;5051898;28;20048;-83
2021/09/08 02:48:28;;;;;;;45.83;30.67;;;17.40;99.90;;;;;;5071518;28;20090;-78
2021/09/08 02:50:53;;;;;;;50.53;31.52;;;17.30;99.90;;;;;;5050714;28;20131;-77
2021/09/08 02:53:19;;;;;;;44.38;30.00;;;17.30;99.90;;;;;;5048253;28;20136;-78
2021/09/08 02:55:45;;;;;;;42.72;29.35;;;17.30;99.90;;;;;;5054491;28;20447;-78
2021/09/08 02:58:11;;;;;;;42.67;29.02;;;17.30;99.90;;;;;;5052204;28;20067;-78
2021/09/08 03:00:36;;;;;;;47.60;31.05;;;17.20;99.90;;;;;;5064865;28;20040;-78
2021/09/08 03:03:02;;;;;;;42.35;30.17;;;17.20;99.90;;;;;;5060960;28;20064;-78
2021/09/08 03:05:28;;;;;;;46.22;32.40;;;17.20;99.90;;;;;;5068178;28;20098;-79
2021/09/08 03:07:54;;;;;;;51.15;33.88;;;17.20;99.90;;;;;;5058076;28;20037;-78
2021/09/08 03:10:20;;;;;;;46.20;32.83;;;17.20;99.90;;;;;;5054503;28;20036;-78
2021/09/08 03:12:45;;;;;;;47.55;32.47;;;17.20;99.90;;;;;;5072572;28;20369;-78
2021/09/08 03:15:11;;;;;;;47.33;33.67;;;17.20;99.90;;;;;;5061734;28;20059;-79
2021/09/08 03:17:37;;;;;;;53.80;33.83;;;17.10;99.90;;;;;;5054873;28;20052;-77
2021/09/08 03:20:03;;;;;;;48.08;34.50;;;17.10;99.90;;;;;;5071170;28;20040;-78
2021/09/08 03:22:29;;;;;;;49.47;32.20;;;17.10;99.90;;;;;;5072182;28;20048;-77
2021/09/08 03:24:55;;;;;;;46.45;33.20;;;17.10;99.90;;;;;;5060554;28;20043;-78
2021/09/08 03:27:21;;;;;;;43.33;30.08;;;16.90;99.90;;;;;;5045418;28;20047;-77
2021/09/08 03:29:46;;;;;;;40.22;29.67;;;17.10;99.90;;;;;;5072650;28;20035;-77
2021/09/08 03:32:12;;;;;;;42.50;30.58;;;17.00;99.90;;;;;;5070361;28;20119;-77
2021/09/08 03:34:38;;;;;;;39.78;28.77;;;17.00;99.90;;;;;;5052307;28;20488;-78
2021/09/08 03:37:03;;;;;;;43.13;30.00;;;17.00;99.90;;;;;;5069340;28;20045;-77
2021/09/08 03:39:29;;;;;;;43.13;28.48;;;17.00;99.90;;;;;;5069293;28;20047;-77
2021/09/08 03:41:55;;;;;;;44.63;28.55;;;16.90;99.90;;;;;;5058382;28;20112;-82
2021/09/08 03:44:20;;;;;;;41.58;28.30;;;16.90;99.90;;;;;;5050699;28;20061;-82
2021/09/08 03:46:46;;;;;;;44.85;28.20;;;16.90;99.90;;;;;;5059051;28;20047;-81
2021/09/08 03:49:14;;;;;;;43.63;28.77;;;16.90;99.90;;;;;;5055024;28;20060;-82
2021/09/08 03:51:40;;;;;;;42.65;28.90;;;16.90;99.90;;;;;;5066233;28;20069;-82
2021/09/08 03:54:05;;;;;;;41.63;28.00;;;16.80;99.90;;;;;;5040714;28;20045;-81
2021/09/08 03:56:31;;;;;;;44.65;28.10;;;16.80;99.90;;;;;;5057763;28;20037;-82
2021/09/08 03:58:57;;;;;;;39.10;26.90;;;16.80;99.90;;;;;;5037984;28;20075;-82
2021/09/08 04:01:22;;;;;;;42.17;27.48;;;16.80;99.90;;;;;;5014582;28;20052;-82
2021/09/08 04:03:49;;;;;;;39.22;27.38;;;16.70;99.90;;;;;;5067007;28;20047;-81
2021/09/08 04:06:15;;;;;;;42.85;28.85;;;16.80;99.90;;;;;;5067591;28;20507;-82
2021/09/08 04:08:41;;;;;;;38.22;28.13;;;16.70;99.90;;;;;;5069815;28;20108;-81
2021/09/08 04:11:07;;;;;;;43.70;30.35;;;16.70;99.90;;;;;;5063761;28;20162;-81
2021/09/08 04:13:33;;;;;;;44.45;29.95;;;16.70;99.90;;;;;;5067058;28;20040;-78
2021/09/08 04:15:58;;;;;;;45.20;30.27;;;16.70;99.90;;;;;;5049073;28;20060;-78
2021/09/08 04:18:24;;;;;;;44.97;30.42;;;16.70;99.90;;;;;;5073896;28;20076;-78
2021/09/08 04:20:50;;;;;;;43.45;30.85;;;16.70;99.90;;;;;;5070458;28;20041;-79
2021/09/08 04:23:15;;;;;;;45.45;31.63;;;16.70;99.90;;;;;;5044813;28;20033;-78
2021/09/08 04:25:41;;;;;;;43.65;30.67;;;16.70;99.90;;;;;;5056190;28;20056;-83
2021/09/08 04:28:07;;;;;;;50.10;32.60;;;16.70;99.90;;;;;;5074031;28;20542;-83
2021/09/08 04:30:33;;;;;;;51.17;33.33;;;16.70;99.90;;;;;;5073726;28;20127;-83
2021/09/08 04:32:58;;;;;;;46.63;31.83;;;16.70;99.90;;;;;;5065571;28;20033;-83
2021/09/08 04:35:24;;;;;;;50.20;32.45;;;16.70;99.90;;;;;;5071803;28;20041;-82
2021/09/08 04:37:50;;;;;;;48.33;31.42;;;16.70;99.90;;;;;;5060758;28;20552;-83
2021/09/08 04:40:16;;;;;;;44.90;33.00;;;16.70;99.90;;;;;;5068672;28;20040;-83
2021/09/08 04:42:42;;;;;;;48.53;30.42;;;16.60;99.90;;;;;;5052292;28;20045;-82
2021/09/08 04:45:09;;;;;;;46.10;31.02;;;16.60;99.90;;;;;;5072140;28;20063;-82
2021/09/08 04:47:35;;;;;;;42.95;29.45;;;16.50;99.90;;;;;;5065656;28;20036;-83
2021/09/08 04:50:01;;;;;;;41.95;28.52;;;16.60;99.90;;;;;;5049358;28;20067;-82
2021/09/08 04:52:30;;;;;;;46.35;29.75;;;16.70;99.90;;;;;;5062785;28;20045;-82
2021/09/08 04:54:56;;;;;;;47.05;29.83;;;16.60;99.90;;;;;;5056204;28;20047;-82
2021/09/08 04:57:22;;;;;;;48.95;29.50;;;16.60;99.90;;;;;;5075029;28;20463;-82
2021/09/08 04:59:47;;;;;;;44.40;28.02;;;16.70;99.90;;;;;;5059832;28;20128;-82
2021/09/08 05:02:13;;;;;;;46.35;27.95;;;16.70;99.90;;;;;;5065144;28;20392;-82
2021/09/08 05:04:39;;;;;;;44.85;28.08;;;16.70;99.90;;;;;;5038474;28;20484;-82
2021/09/08 05:07:05;;;;;;;43.53;28.17;;;16.60;99.90;;;;;;5053223;28;20048;-79
2021/09/08 05:09:32;;;;;;;43.28;28.02;;;16.60;99.90;;;;;;5029114;28;20049;-79
2021/09/08 05:11:58;;;;;;;46.20;27.05;;;16.20;99.90;;;;;;5074310;28;20085;-79
2021/09/08 05:14:26;;;;;;;41.08;27.00;;;16.60;99.90;;;;;;5059344;28;20063;-79
2021/09/08 05:16:52;;;;;;;39.35;25.73;;;16.60;99.90;;;;;;5043517;28;20481;-83
2021/09/08 05:19:18;;;;;;;41.67;26.92;;;16.60;99.90;;;;;;5047916;28;20048;-83
2021/09/08 05:21:43;;;;;;;43.10;28.17;;;16.60;99.90;;;;;;5058173;28;20036;-83
2021/09/08 05:24:09;;;;;;;44.30;27.42;;;16.60;99.90;;;;;;5060073;28;20500;-81
2021/09/08 05:26:37;;;;;;;39.00;26.05;;;16.60;99.90;;;;;;5068044;28;20111;-82
2021/09/08 05:29:03;;;;;;;48.92;27.58;;;16.60;99.90;;;;;;5066894;28;20045;-82
2021/09/08 05:31:29;;;;;;;42.53;27.67;;;16.60;99.90;;;;;;5051482;28;20037;-82
2021/09/08 05:33:55;;;;;;;49.75;28.25;;;16.60;99.90;;;;;;5030536;28;20484;-82
2021/09/08 05:36:21;;;;;;;48.33;28.90;;;16.60;99.90;;;;;;5069635;28;20127;-82
2021/09/08 05:38:47;;;;;;;44.95;27.90;;;16.60;99.90;;;;;;5022084;28;20111;-82
2021/09/08 05:41:12;;;;;;;50.25;29.08;;;16.60;99.90;;;;;;5036113;28;20074;-83
2021/09/08 05:43:38;;;;;;;50.80;29.02;;;16.60;99.90;;;;;;5038370;28;20049;-82
2021/09/08 05:46:07;;;;;;;42.78;29.38;;;16.60;99.90;;;;;;5049396;28;20131;-83
2021/09/08 05:48:33;;;;;;;49.75;29.02;;;16.70;99.90;;;;;;5051699;28;20036;-84
2021/09/08 05:51:00;;;;;;;48.25;28.10;;;16.70;99.90;;;;;;5053099;28;20033;-84
2021/09/08 05:53:26;;;;;;;63.85;29.98;;;16.70;99.90;;;;;;5045653;28;20112;-85
2021/09/08 05:55:54;;;;;;;50.35;30.40;;;16.70;99.90;;;;;;5038749;28;20120;-83
2021/09/08 05:58:19;;;;;;;67.53;31.98;;;16.70;99.90;;;;;;5063614;28;20037;-84
2021/09/08 06:00:45;;;;;;;56.25;29.55;;;16.70;99.90;;;;;;5028399;28;20055;-90
2021/09/08 06:03:13;;;;;;;55.00;30.42;;;16.70;99.90;;;;;;5050901;28;20045;-88
2021/09/08 06:05:55;;;;;;;61.67;31.10;;;16.70;99.90;;;;;;5034599;28;20405;-89
2021/09/08 06:11:56;;;;;;;50.10;31.48;;;16.80;99.90;;;;;;5021777;28;20370;-91
2021/09/08 06:14:25;;;;;;;42.97;28.10;;;16.80;99.90;;;;;;5041201;28;20040;-91
2021/09/08 06:16:58;;;;;;;46.58;29.30;;;16.90;99.90;;;;;;5035100;28;20570;-91
2021/09/08 06:19:24;;;;;;;48.33;29.70;;;16.80;99.90;;;;;;5018436;28;20045;-85
2021/09/08 06:21:50;;;;;;;42.67;30.42;;;16.80;99.90;;;;;;5051836;28;20033;-87
2021/09/08 06:24:16;;;;;;;48.65;30.67;;;16.90;99.90;;;;;;5067166;28;20123;-87
2021/09/08 06:26:42;;;;;;;45.17;29.48;;;16.90;99.90;;;;;;5042526;28;20044;-87
2021/09/08 06:29:08;;;;;;;49.42;29.90;;;16.90;99.90;;;;;;5065162;28;20044;-87
2021/09/08 06:31:34;;;;;;;47.35;30.17;;;16.90;99.90;;;;;;5040907;28;20093;-87
2021/09/08 06:34:02;;;;;;;43.53;28.67;;;17.00;99.90;;;;;;5059734;28;20052;-86
2021/09/08 06:36:31;;;;;;;41.50;28.98;;;17.00;99.90;;;;;;5049025;28;20135;-85
2021/09/08 06:38:59;;;;;;;44.42;28.58;;;17.00;99.90;;;;;;5063175;28;20499;-86
2021/09/08 06:41:24;;;;;;;46.00;28.70;;;17.00;99.90;;;;;;5071105;28;20500;-82
2021/09/08 06:43:50;;;;;;;41.38;27.60;;;17.10;99.90;;;;;;5071810;28;20079;-81
2021/09/08 06:46:16;;;;;;;51.50;29.20;;;17.10;99.90;;;;;;5050398;28;20044;-88
2021/09/08 06:48:47;;;;;;;42.10;28.70;;;17.10;99.90;;;;;;5042863;28;20602;-90
2021/09/08 06:51:13;;;;;;;43.67;28.55;;;17.10;99.90;;;;;;5018089;28;20496;-84
2021/09/08 06:53:39;;;;;;;42.35;27.98;;;17.20;99.90;;;;;;5053209;28;20032;-84
2021/09/08 06:56:08;;;;;;;44.53;28.30;;;17.20;99.90;;;;;;5003424;28;20053;-83
2021/09/08 06:58:34;;;;;;;45.40;28.17;;;17.20;99.90;;;;;;5045896;28;20047;-84
2021/09/08 07:01:00;;;;;;;42.08;29.00;;;17.00;99.90;;;;;;5048884;28;20033;-84
2021/09/08 07:03:25;;;;;;;45.03;28.95;;;17.30;99.90;;;;;;5014589;28;20048;-85
2021/09/08 07:05:51;;;;;;;41.72;28.88;;;17.30;99.90;;;;;;5052169;28;20025;-85
2021/09/08 07:08:17;;;;;;;41.17;29.17;;;17.30;99.90;;;;;;5050177;28;20415;-85
2021/09/08 07:10:43;;;;;;;40.28;27.33;;;17.40;99.90;;;;;;5035637;28;20036;-85
2021/09/08 07:13:09;;;;;;;38.83;27.38;;;17.40;99.90;;;;;;5051063;28;20036;-85
2021/09/08 07:15:34;;;;;;;46.40;27.52;;;17.50;99.90;;;;;;5051628;28;20082;-85
2021/09/08 07:18:01;;;;;;;38.33;26.42;;;17.50;99.90;;;;;;5051145;28;20048;-85
2021/09/08 07:20:41;;;;;;;38.08;26.20;;;17.50;99.90;;;;;;5052948;28;20541;-86
2021/09/08 07:23:10;;;;;;;39.20;25.33;;;17.50;99.90;;;;;;5003446;28;20733;-84
2021/09/08 07:25:36;;;;;;;39.38;25.08;;;17.60;99.90;;;;;;5051834;28;20072;-85
2021/09/08 07:28:03;;;;;;;41.25;26.02;;;17.60;99.90;;;;;;5034164;28;20037;-84
2021/09/08 07:30:34;;;;;;;44.50;26.40;;;17.60;99.90;;;;;;5053237;28;20043;-85
2021/09/08 07:33:03;;;;;;;39.10;26.15;;;17.70;99.90;;;;;;5052568;28;20048;-84
2021/09/08 07:35:29;;;;;;;45.25;24.45;;;17.90;99.90;;;;;;5049017;28;20109;-83
2021/09/08 07:37:57;;;;;;;34.70;23.13;;;17.60;99.90;;;;;;5040673;28;20041;-80
2021/09/08 07:40:23;;;;;;;36.38;22.75;;;17.90;99.90;;;;;;5054836;28;20099;-85
2021/09/08 07:42:53;;;;;;;36.47;23.30;;;17.80;99.90;;;;;;5064989;28;20033;-84
2021/09/08 07:45:19;;;;;;;40.45;23.88;;;18.00;99.90;;;;;;5069163;28;20053;-84
2021/09/08 07:47:45;;;;;;;41.22;24.00;;;18.00;99.90;;;;;;5037939;28;20045;-85
2021/09/08 07:50:15;;;;;;;41.28;24.55;;;18.10;99.90;;;;;;5069837;28;20029;-85
2021/09/08 07:52:41;;;;;;;36.03;23.60;;;18.10;99.90;;;;;;5055867;28;20049;-85
2021/09/08 07:55:08;;;;;;;39.28;24.27;;;18.10;99.90;;;;;;5059158;28;20047;-85
2021/09/08 07:57:39;;;;;;;37.22;23.83;;;18.20;99.90;;;;;;5067498;28;20045;-84
2021/09/08 08:00:05;;;;;;;34.92;23.20;;;18.20;99.90;;;;;;5056344;28;20479;-84
2021/09/08 08:02:31;;;;;;;35.80;22.05;;;18.20;99.90;;;;;;5038575;28;20036;-84
2021/09/08 08:04:57;;;;;;;31.52;21.15;;;18.40;99.90;;;;;;5057066;28;20055;-84
2021/09/08 08:07:22;;;;;;;34.83;20.08;;;18.40;99.90;;;;;;5059514;28;20098;-84
2021/09/08 08:09:51;;;;;;;35.20;19.98;;;18.40;99.90;;;;;;5030153;28;20047;-84
2021/09/08 08:12:17;;;;;;;29.00;19.15;;;18.10;99.90;;;;;;5058987;28;20051;-86
2021/09/08 08:14:42;;;;;;;34.20;20.38;;;18.50;99.90;;;;;;5064549;28;20044;-85
2021/09/08 08:17:08;;;;;;;39.95;20.65;;;18.60;99.90;;;;;;5066418;28;20070;-86
2021/09/08 08:19:36;;;;;;;27.73;19.50;;;18.60;99.90;;;;;;5074192;28;20086;-85
2021/09/08 08:22:02;;;;;;;30.23;19.15;;;18.70;99.90;;;;;;5073980;28;20044;-84
2021/09/08 08:24:28;;;;;;;30.40;18.25;;;18.80;99.90;;;;;;5059672;28;20039;-84
2021/09/08 08:26:54;;;;;;;33.80;19.30;;;18.80;99.90;;;;;;5048493;28;20041;-83
2021/09/08 08:29:20;;;;;;;34.28;18.98;;;18.80;99.90;;;;;;5055106;28;20049;-84
2021/09/08 08:31:45;;;;;;;27.13;17.20;;;18.90;99.90;;;;;;5062253;28;20354;-85
2021/09/08 08:34:19;;;;;;;30.38;17.08;;;18.90;99.90;;;;;;5062132;28;20040;-84
2021/09/08 08:36:45;;;;;;;24.23;16.77;;;19.00;99.90;;;;;;5037029;28;20397;-85
2021/09/08 08:39:19;;;;;;;26.83;16.40;;;19.10;99.90;;;;;;5053871;28;20037;-85
2021/09/08 08:41:45;;;;;;;31.65;16.65;;;19.10;99.90;;;;;;5072243;28;20044;-84
2021/09/08 08:44:12;;;;;;;25.52;16.98;;;19.20;99.90;;;;;;5045349;28;20049;-85
2021/09/08 08:46:38;;;;;;;23.85;16.50;;;19.20;99.90;;;;;;5053934;28;20044;-85
2021/09/08 08:49:04;;;;;;;24.88;15.73;;;19.20;99.90;;;;;;5063831;28;20051;-85
2021/09/08 08:51:31;;;;;;;29.95;15.30;;;19.30;99.90;;;;;;5053143;28;20128;-85
2021/09/08 08:53:57;;;;;;;23.48;14.55;;;19.30;99.90;;;;;;5036452;28;20044;-85
2021/09/08 08:56:26;;;;;;;23.42;15.70;;;19.30;99.90;;;;;;5067189;28;20051;-85
2021/09/08 08:58:53;;;;;;;28.52;16.67;;;19.40;99.90;;;;;;5033222;28;20037;-84
2021/09/08 09:01:26;;;;;;;24.48;16.45;;;19.50;99.90;;;;;;5058118;28;20036;-84
2021/09/08 09:04:04;;;;;;;29.70;16.42;;;19.50;99.90;;;;;;5037026;28;20047;-84
2021/09/08 09:06:50;;;;;;;30.05;15.38;;;19.60;99.90;;;;;;5066393;28;20373;-84
2021/09/08 09:09:21;;;;;;;25.50;14.93;;;19.60;99.90;;;;;;5024431;28;20044;-84
2021/09/08 09:11:51;;;;;;;29.92;16.15;;;19.50;99.90;;;;;;5068378;28;20909;-85
2021/09/08 09:14:18;;;;;;;24.75;15.82;;;19.70;99.90;;;;;;5052893;28;20052;-85
2021/09/08 09:16:44;;;;;;;25.58;16.10;;;19.80;99.90;;;;;;5053862;28;20110;-84
2021/09/08 09:19:12;;;;;;;23.90;14.90;;;19.90;99.90;;;;;;5068272;28;20032;-85
2021/09/08 09:21:39;;;;;;;19.30;13.60;;;19.90;99.90;;;;;;5072693;28;20098;-85
2021/09/08 09:24:07;;;;;;;24.63;14.38;;;19.90;99.90;;;;;;5056050;28;20075;-85
2021/09/08 09:26:38;;;;;;;27.55;15.30;;;20.00;99.90;;;;;;5039552;28;20388;-85
2021/09/08 09:29:24;;;;;;;24.75;17.20;;;20.10;99.90;;;;;;5042945;28;20049;-84
2021/09/08 09:31:50;;;;;;;26.95;15.13;;;20.10;99.90;;;;;;5060232;28;20052;-85
2021/09/08 09:34:16;;;;;;;26.70;15.23;;;20.10;99.90;;;;;;5072377;28;20047;-84
2021/09/08 09:36:42;;;;;;;19.33;13.88;;;20.20;99.90;;;;;;5019623;28;20095;-84
2021/09/08 09:39:20;;;;;;;17.27;12.88;;;20.20;99.90;;;;;;5069134;28;20080;-85
2021/09/08 09:41:46;;;;;;;18.05;12.00;;;20.10;99.90;;;;;;5052195;28;20044;-84
2021/09/08 09:44:16;;;;;;;21.48;12.40;;;20.40;99.90;;;;;;5052504;28;20041;-85
2021/09/08 09:46:47;;;;;;;17.08;11.63;;;20.40;99.90;;;;;;5070206;28;20185;-85
2021/09/08 09:49:14;;;;;;;22.05;12.80;;;20.50;99.90;;;;;;5073591;28;20040;-85
2021/09/08 09:51:46;;;;;;;16.75;12.45;;;20.50;99.90;;;;;;5056414;28;20049;-85
2021/09/08 09:54:18;;;;;;;17.92;11.27;;;20.80;99.90;;;;;;5052395;28;20409;-85
2021/09/08 09:56:44;;;;;;;18.33;11.60;;;20.60;99.90;;;;;;5048011;28;20033;-85
2021/09/08 09:59:12;;;;;;;16.95;10.32;;;20.70;99.90;;;;;;5043818;28;20476;-85
2021/09/08 10:01:38;;;;;;;18.65;9.93;;;20.80;99.90;;;;;;5073051;28;20058;-85
2021/09/08 10:04:04;;;;;;;19.88;9.68;;;20.80;99.90;;;;;;5072415;28;20548;-85
2021/09/08 10:06:30;;;;;;;15.88;9.60;;;20.80;99.90;;;;;;5073322;28;20040;-85
2021/09/08 10:08:57;;;;;;;16.23;10.25;;;20.90;99.90;;;;;;5025249;28;20633;-85
2021/09/08 10:11:32;;;;;;;16.02;10.95;;;21.00;99.90;;;;;;5073486;28;20116;-84
2021/09/08 10:14:13;;;;;;;21.13;11.05;;;21.00;99.90;;;;;;5053468;28;20045;-85
2021/09/08 10:16:43;;;;;;;15.35;9.73;;;21.00;99.90;;;;;;5051780;28;20048;-85
2021/09/08 10:19:08;;;;;;;15.45;10.18;;;21.00;99.90;;;;;;5051581;28;20041;-85
2021/09/08 10:21:36;;;;;;;18.88;10.10;;;21.10;99.90;;;;;;5035170;28;20473;-85
2021/09/08 10:24:05;;;;;;;20.55;9.75;;;21.20;99.90;;;;;;5052041;28;20549;-85
2021/09/08 10:26:38;;;;;;;16.77;9.23;;;21.20;99.90;;;;;;5038190;28;20050;-85
2021/09/08 10:29:06;;;;;;;15.30;9.23;;;21.20;99.90;;;;;;5042230;28;20045;-85
2021/09/08 10:31:38;;;;;;;15.73;8.77;;;21.30;99.90;;;;;;5049278;28;20098;-85
2021/09/08 10:34:11;;;;;;;14.65;9.13;;;21.30;99.90;;;;;;5051640;28;20045;-85
2021/09/08 10:36:46;;;;;;;18.55;7.95;;;21.40;99.90;;;;;;5052604;28;20477;-85
2021/09/08 10:39:14;;;;;;;16.77;8.50;;;21.40;99.90;;;;;;5051014;28;20489;-85
2021/09/08 10:41:45;;;;;;;13.70;8.07;;;21.40;99.90;;;;;;5055914;28;20094;-84
2021/09/08 10:44:13;;;;;;;12.82;8.35;;;21.50;99.90;;;;;;5061330;28;20041;-84
2021/09/08 10:46:50;;;;;;;12.50;7.93;;;21.60;99.90;;;;;;5038476;28;20052;-85
2021/09/08 10:49:54;;;;;;;13.65;8.32;;;21.60;99.90;;;;;;5060380;28;20504;-84
2021/09/08 10:52:35;;;;;;;13.85;8.02;;;21.70;99.90;;;;;;5039712;28;20110;-84
2021/09/08 10:55:00;;;;;;;13.68;8.55;;;21.70;99.90;;;;;;5053397;28;20400;-85
2021/09/08 10:57:42;;;;;;;12.30;7.90;;;21.70;99.90;;;;;;5071435;28;20043;-85
2021/09/08 11:00:08;;;;;;;11.95;8.13;;;21.80;99.90;;;;;;5070930;28;20090;-85
2021/09/08 11:02:44;;;;;;;14.75;9.40;;;21.80;99.90;;;;;;5063708;28;20116;-85
2021/09/08 11:05:11;;;;;;;14.15;7.45;;;21.90;99.90;;;;;;5051450;28;20045;-85
2021/09/08 11:07:41;;;;;;;16.08;7.72;;;22.00;99.90;;;;;;5051426;28;20037;-84
2021/09/08 11:10:09;;;;;;;10.35;7.80;;;22.00;99.90;;;;;;5066450;28;20041;-84
2021/09/08 11:12:48;;;;;;;12.02;7.93;;;22.00;99.90;;;;;;5034809;28;20055;-84
2021/09/08 11:15:18;;;;;;;15.15;8.52;;;22.00;99.90;;;;;;5052881;28;20033;-84
2021/09/08 11:17:55;;;;;;;15.40;7.75;;;22.10;99.90;;;;;;5054429;28;20040;-84
2021/09/08 11:20:20;;;;;;;11.73;7.93;;;22.20;99.90;;;;;;5060199;28;20041;-84
2021/09/08 11:23:03;;;;;;;13.23;7.78;;;22.20;99.90;;;;;;5052328;28;20366;-84
2021/09/08 11:25:36;;;;;;;13.05;7.93;;;22.20;99.90;;;;;;5051220;28;20041;-85
2021/09/08 11:28:09;;;;;;;10.98;7.95;;;22.30;99.90;;;;;;5038973;28;20040;-85
2021/09/08 11:30:38;;;;;;;20.75;8.10;;;21.90;99.90;;;;;;5071296;28;20051;-85
2021/09/08 11:33:09;;;;;;;10.82;7.63;;;22.40;99.90;;;;;;5056709;28;20071;-85
2021/09/08 11:35:47;;;;;;;16.23;8.77;;;22.40;99.90;;;;;;5072228;28;20036;-85
2021/09/08 11:38:19;;;;;;;12.48;8.60;;;22.50;99.90;;;;;;5070749;28;20044;-85
2021/09/08 11:40:54;;;;;;;13.07;7.72;;;22.50;99.90;;;;;;5043641;28;20033;-85
2021/09/08 11:43:34;;;;;;;9.35;7.10;;;22.60;99.90;;;;;;5051567;28;20110;-84
2021/09/08 11:46:34;;;;;;;14.40;7.78;;;22.60;99.90;;;;;;5063133;28;20056;-85
2021/09/08 11:49:07;;;;;;;11.00;7.13;;;22.60;99.90;;;;;;5041467;28;20459;-85
2021/09/08 11:51:35;;;;;;;9.73;7.38;;;22.60;99.90;;;;;;5053555;28;20124;-85
2021/09/08 11:54:04;;;;;;;16.98;7.40;;;22.70;99.90;;;;;;5054519;28;20041;-85
2021/09/08 11:56:31;;;;;;;13.20;7.38;;;22.70;99.90;;;;;;5068366;28;20068;-85
2021/09/08 11:58:59;;;;;;;11.57;7.90;;;22.80;99.90;;;;;;5062357;28;20041;-84
2021/09/08 12:01:30;;;;;;;12.77;7.38;;;22.80;99.90;;;;;;5041841;28;20393;-84
2021/09/08 12:03:59;;;;;;;13.88;8.07;;;22.80;99.90;;;;;;5037946;28;20442;-85
2021/09/08 12:06:26;;;;;;;10.73;7.38;;;22.90;99.90;;;;;;5054332;28;20448;-84
2021/09/08 12:09:03;;;;;;;10.70;7.50;;;22.80;99.90;;;;;;5056302;28;20412;-85
2021/09/08 12:11:32;;;;;;;16.02;8.32;;;22.90;99.90;;;;;;5062311;28;20081;-85
2021/09/08 12:14:24;;;;;;;12.07;7.38;;;22.90;99.90;;;;;;5058409;28;20040;-84
2021/09/08 12:16:56;;;;;;;14.05;7.22;;;22.90;99.90;;;;;;5053782;28;20037;-85
2021/09/08 12:19:36;;;;;;;10.18;6.65;;;23.00;99.90;;;;;;5059867;28;20044;-85
2021/09/08 12:22:12;;;;;;;15.27;6.97;;;23.10;99.90;;;;;;5063303;28;20453;-85
2021/09/08 12:24:44;;;;;;;15.50;8.57;;;23.10;99.90;;;;;;5053631;28;20064;-85
2021/09/08 12:27:35;;;;;;;18.38;7.20;;;23.20;99.90;;;;;;5048630;28;20048;-85
2021/09/08 12:30:08;;;;;;;11.43;6.72;;;23.20;99.90;;;;;;5041748;28;20033;-85
2021/09/08 12:32:49;;;;;;;10.77;7.00;;;23.20;99.90;;;;;;5053738;28;20045;-85
2021/09/08 12:35:46;;;;;;;14.02;7.00;;;23.20;99.90;;;;;;5041270;28;20041;-85
2021/09/08 12:38:40;;;;;;;12.43;7.30;;;23.20;99.90;;;;;;5041467;28;20032;-85